Potgietersrus, South Africa
Current Conditions -  °F | °C
As of 10:00 AM on Thursday 27 Nov 2014 (Local Time) from FAPP Reporting Station
Broken Clouds Broken Clouds  
Wind Chill: 72°   Ceiling: 10000
Heat Index: 72°   Visibility: 6mi
Dew Point: 50°   Wind: 2mph
Humidity: 46%   Direction: 310°NW
Pressure: 30.06"   Gusts: NA
Location:  24.16°S, 29°E
Report Text: FAPP 270800Z 31002KT 9999 FEW020 BKN100 22/10 Q1018 NOSIG
Loading
Personal Weather Stations






























Interactive Weather Map New forecast layout! Learn more

10-Day Weather Forecast

Advertisements
Track Severe Weather on mobile